Bend, OR (97707)

3:40 AM PDT on September 23, 2014 (GMT -0700)
Public Works Office | Change Station
CLOSE
Current Station
Personal Weather Station
Location: Sunriver, OR
Elevation: 4185 ft
Nearby Weather Stations

Elev 4185 ft 43.89 °N, 121.44 °W | Updated 4 minutes ago

Partly Cloudy
Partly Cloudy
50.6 °F
Feels Like 50.6 °F
N
0.0
Wind Variable Wind from SW
Gusts 0.0 mph

Today
High -- | Low -- °F
--% Chance of Precip.
Yesterday
High -- | Low -- °F
Precip. -- in
6:54 AM 7:01 PM
Waning Crescent, 1% visible
Pressure 29.97 in
Visibility 10.0 miles
Clouds Clear
Dew Point 46 °F
Humidity 83%
Rainfall 0.00 in
Snow Depth 0 in , 0 in , 0 in
UV 0 out of 12
Pollen 1.60 out of 12
Air Quality Not available.
Flu Activity Not available.
METAR KBDN 231035Z AUTO 23005KT 10SM CLR 14/07 A2997 RMK AO2

More Conditions Fewer Conditions

Pressure 29.97 in
Visibility 10.0 miles
Clouds Clear
Dew Point 46 °F
Humidity 83%
Rainfall 0.00 in
Snow Depth 0 in , 0 in , 0 in
UV 0 out of 12
Pollen 1.60 out of 12
Air Quality Not available.
Flu Activity Not available.
METAR KBDN 231035Z AUTO 23005KT 10SM CLR 14/07 A2997 RMK AO2

More Conditions Fewer Conditions

10-Day Weather Forecast

Almanac

Astronomy

Sep. 23, 2014 Rise Set
Actual Time 6:54 AM PDT 7:01 PM PDT
Civil Twilight 6:25 AM PDT 7:30 PM PDT
Nautical Twilight 5:52 AM PDT 8:03 PM PDT
Astronomical Twilight 5:17 AM PDT 8:37 PM PDT
Moon 6:23 AM PDT 6:42 PM PDT
Length of Visible Light 13h 04m
Length of Day
12h 06m
Tomorrow will be 2m 59s shorter.
Waning Crescent, 1% of the Moon is Illuminated
Today
Waning Crescent
Sep 24
New
Oct 1
First Quarter
Oct 8
Full
Oct 15
Last Quarter

Today's Extremes

State Highs State Lows

Community

WunderPhotos

Upload Photos

1,755,645 photos uploaded!

Nearby

Snow Depth

Station Depth Elevation
Derr 0 in 5670 ft
Snow Mountain 0 in 6220 ft
Mt. Howard 0 in 7910 ft
Annie Springs 0 in 6020 ft
Gold Center 0 in 5340 ft

Earthquake Activity

City Distance Mag. Time & Date
Lakeview, Oregon 165 miles 3.0 7:28 PM PDT
2014-09-21
Lakeview, Oregon 166 miles 2.5 2:45 AM PDT
2014-09-20
Lakeview, Oregon 166 miles 2.5 10:12 PM PDT
2014-09-19
Lakeview, Oregon 167 miles 2.9 7:40 PM PDT
2014-09-19
Minimum magnitude displayed is 2.5.

Coastal Water Temperatures

Place Temperature
No Stations Reporting

Nearby Weather Stations